sensor_id;sensor_type;location;lat;lon;timestamp;P1;durP1;ratioP1;P2;durP2;ratioP2
22070;SDS011;11200;51.488;6.668;2024-03-08T00:00:23;21.80;;;16.10;;
22070;SDS011;11200;51.488;6.668;2024-03-08T00:02:49;20.20;;;15.43;;
22070;SDS011;11200;51.488;6.668;2024-03-08T00:05:19;21.75;;;15.95;;
22070;SDS011;11200;51.488;6.668;2024-03-08T00:07:45;19.52;;;15.38;;
22070;SDS011;11200;51.488;6.668;2024-03-08T00:10:12;21.45;;;15.75;;
22070;SDS011;11200;51.488;6.668;2024-03-08T00:12:42;23.63;;;16.02;;
22070;SDS011;11200;51.488;6.668;2024-03-08T00:15:11;22.17;;;15.70;;
22070;SDS011;11200;51.488;6.668;2024-03-08T00:17:41;23.00;;;15.80;;
22070;SDS011;11200;51.488;6.668;2024-03-08T00:20:07;22.40;;;16.63;;
22070;SDS011;11200;51.488;6.668;2024-03-08T00:22:34;24.02;;;16.05;;
22070;SDS011;11200;51.488;6.668;2024-03-08T00:25:00;21.70;;;16.33;;
22070;SDS011;11200;51.488;6.668;2024-03-08T00:27:27;23.80;;;16.70;;
22070;SDS011;11200;51.488;6.668;2024-03-08T00:29:57;21.17;;;15.70;;
22070;SDS011;11200;51.488;6.668;2024-03-08T00:32:23;22.17;;;15.88;;
22070;SDS011;11200;51.488;6.668;2024-03-08T00:34:52;22.63;;;16.48;;
22070;SDS011;11200;51.488;6.668;2024-03-08T00:37:19;22.90;;;15.60;;
22070;SDS011;11200;51.488;6.668;2024-03-08T00:39:45;24.38;;;15.57;;
22070;SDS011;11200;51.488;6.668;2024-03-08T00:42:11;19.20;;;15.07;;
22070;SDS011;11200;51.488;6.668;2024-03-08T00:44:37;21.90;;;15.93;;
22070;SDS011;11200;51.488;6.668;2024-03-08T00:47:03;21.00;;;15.90;;
22070;SDS011;11200;51.488;6.668;2024-03-08T00:49:29;22.63;;;15.95;;
22070;SDS011;11200;51.488;6.668;2024-03-08T00:51:55;22.70;;;16.08;;
22070;SDS011;11200;51.488;6.668;2024-03-08T00:54:21;22.25;;;16.38;;
22070;SDS011;11200;51.488;6.668;2024-03-08T00:56:47;21.88;;;16.38;;
22070;SDS011;11200;51.488;6.668;2024-03-08T00:59:13;22.25;;;16.30;;
22070;SDS011;11200;51.488;6.668;2024-03-08T01:01:40;22.48;;;16.27;;
22070;SDS011;11200;51.488;6.668;2024-03-08T01:04:06;21.73;;;16.23;;
22070;SDS011;11200;51.488;6.668;2024-03-08T01:06:33;24.38;;;16.55;;
22070;SDS011;11200;51.488;6.668;2024-03-08T01:08:59;23.80;;;16.75;;
22070;SDS011;11200;51.488;6.668;2024-03-08T01:11:24;25.17;;;16.83;;
22070;SDS011;11200;51.488;6.668;2024-03-08T01:13:53;22.08;;;16.60;;
22070;SDS011;11200;51.488;6.668;2024-03-08T01:16:19;23.73;;;16.95;;
22070;SDS011;11200;51.488;6.668;2024-03-08T01:18:47;23.83;;;16.95;;
22070;SDS011;11200;51.488;6.668;2024-03-08T01:21:13;22.45;;;16.67;;
22070;SDS011;11200;51.488;6.668;2024-03-08T01:23:39;23.55;;;16.50;;
22070;SDS011;11200;51.488;6.668;2024-03-08T01:26:05;21.92;;;16.20;;
22070;SDS011;11200;51.488;6.668;2024-03-08T01:28:31;21.67;;;15.93;;
22070;SDS011;11200;51.488;6.668;2024-03-08T01:30:59;21.58;;;16.30;;
22070;SDS011;11200;51.488;6.668;2024-03-08T01:33:26;23.73;;;16.50;;
22070;SDS011;11200;51.488;6.668;2024-03-08T01:35:52;23.48;;;16.48;;
22070;SDS011;11200;51.488;6.668;2024-03-08T01:38:19;21.65;;;16.30;;
22070;SDS011;11200;51.488;6.668;2024-03-08T01:40:47;21.48;;;16.20;;
22070;SDS011;11200;51.488;6.668;2024-03-08T01:43:20;21.77;;;16.08;;
22070;SDS011;11200;51.488;6.668;2024-03-08T01:45:47;20.67;;;15.75;;
22070;SDS011;11200;51.488;6.668;2024-03-08T01:48:13;23.98;;;16.42;;
22070;SDS011;11200;51.488;6.668;2024-03-08T01:50:40;22.65;;;16.35;;
22070;SDS011;11200;51.488;6.668;2024-03-08T01:53:07;22.00;;;16.67;;
22070;SDS011;11200;51.488;6.668;2024-03-08T01:55:35;23.42;;;16.80;;
22070;SDS011;11200;51.488;6.668;2024-03-08T01:58:01;22.35;;;15.93;;
22070;SDS011;11200;51.488;6.668;2024-03-08T02:00:27;21.75;;;15.98;;
22070;SDS011;11200;51.488;6.668;2024-03-08T02:02:54;23.45;;;16.73;;
22070;SDS011;11200;51.488;6.668;2024-03-08T02:05:21;23.00;;;16.52;;
22070;SDS011;11200;51.488;6.668;2024-03-08T02:07:48;22.33;;;16.38;;
22070;SDS011;11200;51.488;6.668;2024-03-08T02:10:14;21.00;;;16.65;;
22070;SDS011;11200;51.488;6.668;2024-03-08T02:12:41;24.05;;;17.52;;
22070;SDS011;11200;51.488;6.668;2024-03-08T02:15:07;23.75;;;17.33;;
22070;SDS011;11200;51.488;6.668;2024-03-08T02:17:33;22.65;;;16.50;;
22070;SDS011;11200;51.488;6.668;2024-03-08T02:20:00;26.02;;;17.67;;
22070;SDS011;11200;51.488;6.668;2024-03-08T02:22:27;24.40;;;18.45;;
22070;SDS011;11200;51.488;6.668;2024-03-08T02:24:53;23.83;;;17.05;;
22070;SDS011;11200;51.488;6.668;2024-03-08T02:27:23;22.08;;;16.33;;
22070;SDS011;11200;51.488;6.668;2024-03-08T02:29:50;25.15;;;18.25;;
22070;SDS011;11200;51.488;6.668;2024-03-08T02:32:20;23.85;;;17.52;;
22070;SDS011;11200;51.488;6.668;2024-03-08T02:34:46;21.98;;;16.65;;
22070;SDS011;11200;51.488;6.668;2024-03-08T02:37:12;22.30;;;16.73;;
22070;SDS011;11200;51.488;6.668;2024-03-08T02:39:38;24.95;;;17.23;;
22070;SDS011;11200;51.488;6.668;2024-03-08T02:42:04;23.48;;;17.42;;
22070;SDS011;11200;51.488;6.668;2024-03-08T02:44:30;25.30;;;17.98;;
22070;SDS011;11200;51.488;6.668;2024-03-08T02:46:57;23.00;;;16.88;;
22070;SDS011;11200;51.488;6.668;2024-03-08T02:49:23;22.73;;;17.65;;
22070;SDS011;11200;51.488;6.668;2024-03-08T02:51:49;23.38;;;17.20;;
22070;SDS011;11200;51.488;6.668;2024-03-08T02:54:15;23.77;;;17.77;;
22070;SDS011;11200;51.488;6.668;2024-03-08T02:56:42;25.10;;;17.60;;
22070;SDS011;11200;51.488;6.668;2024-03-08T02:59:08;24.35;;;18.15;;
22070;SDS011;11200;51.488;6.668;2024-03-08T03:01:34;23.52;;;16.75;;
22070;SDS011;11200;51.488;6.668;2024-03-08T03:04:01;22.13;;;17.20;;
22070;SDS011;11200;51.488;6.668;2024-03-08T03:06:27;21.63;;;16.35;;
22070;SDS011;11200;51.488;6.668;2024-03-08T03:08:53;22.52;;;16.13;;
22070;SDS011;11200;51.488;6.668;2024-03-08T03:11:19;24.88;;;17.27;;
22070;SDS011;11200;51.488;6.668;2024-03-08T03:13:47;22.90;;;17.00;;
22070;SDS011;11200;51.488;6.668;2024-03-08T03:16:16;22.60;;;16.92;;
22070;SDS011;11200;51.488;6.668;2024-03-08T03:18:43;23.02;;;17.35;;
22070;SDS011;11200;51.488;6.668;2024-03-08T03:21:10;22.00;;;16.35;;
22070;SDS011;11200;51.488;6.668;2024-03-08T03:23:37;21.95;;;16.55;;
22070;SDS011;11200;51.488;6.668;2024-03-08T03:26:04;22.98;;;17.10;;
22070;SDS011;11200;51.488;6.668;2024-03-08T03:28:32;23.70;;;17.10;;
22070;SDS011;11200;51.488;6.668;2024-03-08T03:30:58;22.60;;;16.85;;
22070;SDS011;11200;51.488;6.668;2024-03-08T03:33:24;23.40;;;17.02;;
22070;SDS011;11200;51.488;6.668;2024-03-08T03:35:50;20.92;;;15.65;;
22070;SDS011;11200;51.488;6.668;2024-03-08T03:38:17;22.67;;;17.05;;
22070;SDS011;11200;51.488;6.668;2024-03-08T03:40:44;22.95;;;17.02;;
22070;SDS011;11200;51.488;6.668;2024-03-08T03:43:11;21.08;;;15.02;;
22070;SDS011;11200;51.488;6.668;2024-03-08T03:45:37;25.08;;;17.30;;
22070;SDS011;11200;51.488;6.668;2024-03-08T03:48:03;21.75;;;16.88;;
22070;SDS011;11200;51.488;6.668;2024-03-08T03:50:29;23.45;;;17.00;;
22070;SDS011;11200;51.488;6.668;2024-03-08T03:52:55;19.67;;;15.85;;
22070;SDS011;11200;51.488;6.668;2024-03-08T03:55:22;22.45;;;16.25;;
22070;SDS011;11200;51.488;6.668;2024-03-08T03:57:48;22.13;;;16.75;;
22070;SDS011;11200;51.488;6.668;2024-03-08T04:00:14;20.45;;;16.58;;
22070;SDS011;11200;51.488;6.668;2024-03-08T04:02:40;22.90;;;16.60;;
22070;SDS011;11200;51.488;6.668;2024-03-08T04:05:07;22.60;;;16.65;;
22070;SDS011;11200;51.488;6.668;2024-03-08T04:07:33;22.52;;;16.50;;
22070;SDS011;11200;51.488;6.668;2024-03-08T04:09:59;23.77;;;17.25;;
22070;SDS011;11200;51.488;6.668;2024-03-08T04:12:25;22.17;;;16.50;;
22070;SDS011;11200;51.488;6.668;2024-03-08T04:14:51;20.88;;;16.55;;
22070;SDS011;11200;51.488;6.668;2024-03-08T04:17:18;24.00;;;17.20;;
22070;SDS011;11200;51.488;6.668;2024-03-08T04:19:44;23.17;;;16.67;;
22070;SDS011;11200;51.488;6.668;2024-03-08T04:22:10;23.35;;;17.05;;
22070;SDS011;11200;51.488;6.668;2024-03-08T04:24:36;22.70;;;16.88;;
22070;SDS011;11200;51.488;6.668;2024-03-08T04:27:02;23.45;;;16.45;;
22070;SDS011;11200;51.488;6.668;2024-03-08T04:29:29;22.23;;;17.27;;
22070;SDS011;11200;51.488;6.668;2024-03-08T04:31:55;23.00;;;16.70;;
22070;SDS011;11200;51.488;6.668;2024-03-08T04:34:21;22.67;;;16.73;;
22070;SDS011;11200;51.488;6.668;2024-03-08T04:36:48;22.85;;;16.27;;
22070;SDS011;11200;51.488;6.668;2024-03-08T04:39:14;22.92;;;17.08;;
22070;SDS011;11200;51.488;6.668;2024-03-08T04:41:41;22.98;;;16.98;;
22070;SDS011;11200;51.488;6.668;2024-03-08T04:44:08;24.17;;;17.67;;
22070;SDS011;11200;51.488;6.668;2024-03-08T04:46:34;24.27;;;17.65;;
22070;SDS011;11200;51.488;6.668;2024-03-08T04:49:00;23.00;;;17.58;;
22070;SDS011;11200;51.488;6.668;2024-03-08T04:51:26;22.13;;;16.75;;
22070;SDS011;11200;51.488;6.668;2024-03-08T04:53:52;23.33;;;17.38;;
22070;SDS011;11200;51.488;6.668;2024-03-08T04:56:18;23.23;;;17.48;;
22070;SDS011;11200;51.488;6.668;2024-03-08T04:58:44;22.95;;;16.92;;
22070;SDS011;11200;51.488;6.668;2024-03-08T05:01:14;23.63;;;17.38;;
22070;SDS011;11200;51.488;6.668;2024-03-08T05:03:43;22.67;;;16.73;;
22070;SDS011;11200;51.488;6.668;2024-03-08T05:06:15;22.98;;;16.88;;
22070;SDS011;11200;51.488;6.668;2024-03-08T05:08:42;31.70;;;17.52;;
22070;SDS011;11200;51.488;6.668;2024-03-08T05:11:09;24.42;;;17.60;;
22070;SDS011;11200;51.488;6.668;2024-03-08T05:13:36;25.30;;;17.00;;
22070;SDS011;11200;51.488;6.668;2024-03-08T05:16:02;24.83;;;17.63;;
22070;SDS011;11200;51.488;6.668;2024-03-08T05:18:30;24.92;;;17.73;;
22070;SDS011;11200;51.488;6.668;2024-03-08T05:20:57;23.33;;;17.60;;
22070;SDS011;11200;51.488;6.668;2024-03-08T05:23:23;27.02;;;17.20;;
22070;SDS011;11200;51.488;6.668;2024-03-08T05:25:49;22.13;;;16.70;;
22070;SDS011;11200;51.488;6.668;2024-03-08T05:28:16;23.13;;;17.08;;
22070;SDS011;11200;51.488;6.668;2024-03-08T05:30:42;24.23;;;16.85;;
22070;SDS011;11200;51.488;6.668;2024-03-08T05:33:09;23.42;;;17.15;;
22070;SDS011;11200;51.488;6.668;2024-03-08T05:35:36;26.17;;;16.98;;
22070;SDS011;11200;51.488;6.668;2024-03-08T05:38:02;21.67;;;16.65;;
22070;SDS011;11200;51.488;6.668;2024-03-08T05:40:28;24.60;;;17.20;;
22070;SDS011;11200;51.488;6.668;2024-03-08T05:42:57;26.85;;;18.45;;
22070;SDS011;11200;51.488;6.668;2024-03-08T05:45:24;23.95;;;17.23;;
22070;SDS011;11200;51.488;6.668;2024-03-08T05:47:52;23.92;;;17.00;;
22070;SDS011;11200;51.488;6.668;2024-03-08T05:50:18;25.40;;;17.70;;
22070;SDS011;11200;51.488;6.668;2024-03-08T05:52:45;24.40;;;17.48;;
22070;SDS011;11200;51.488;6.668;2024-03-08T05:55:12;23.58;;;17.02;;
22070;SDS011;11200;51.488;6.668;2024-03-08T05:57:39;24.73;;;17.35;;
22070;SDS011;11200;51.488;6.668;2024-03-08T06:00:05;24.33;;;16.77;;
22070;SDS011;11200;51.488;6.668;2024-03-08T06:02:32;25.33;;;16.98;;
22070;SDS011;11200;51.488;6.668;2024-03-08T06:04:58;22.20;;;16.33;;
22070;SDS011;11200;51.488;6.668;2024-03-08T06:07:27;26.60;;;18.40;;
22070;SDS011;11200;51.488;6.668;2024-03-08T06:09:53;23.38;;;17.65;;
22070;SDS011;11200;51.488;6.668;2024-03-08T06:12:19;23.42;;;16.98;;
22070;SDS011;11200;51.488;6.668;2024-03-08T06:14:45;23.77;;;17.50;;
22070;SDS011;11200;51.488;6.668;2024-03-08T06:17:11;26.90;;;18.95;;
22070;SDS011;11200;51.488;6.668;2024-03-08T06:19:37;24.67;;;17.65;;
22070;SDS011;11200;51.488;6.668;2024-03-08T06:22:04;24.33;;;17.08;;
22070;SDS011;11200;51.488;6.668;2024-03-08T06:24:31;23.13;;;17.20;;
22070;SDS011;11200;51.488;6.668;2024-03-08T06:26:57;24.20;;;16.90;;
22070;SDS011;11200;51.488;6.668;2024-03-08T06:29:24;22.20;;;17.00;;
22070;SDS011;11200;51.488;6.668;2024-03-08T06:31:51;23.15;;;17.10;;
22070;SDS011;11200;51.488;6.668;2024-03-08T06:34:18;24.15;;;17.52;;
22070;SDS011;11200;51.488;6.668;2024-03-08T06:36:44;24.70;;;17.92;;
22070;SDS011;11200;51.488;6.668;2024-03-08T06:39:10;22.02;;;16.52;;
22070;SDS011;11200;51.488;6.668;2024-03-08T06:41:37;25.38;;;18.10;;
22070;SDS011;11200;51.488;6.668;2024-03-08T06:44:03;23.55;;;17.30;;
22070;SDS011;11200;51.488;6.668;2024-03-08T06:46:30;22.90;;;16.63;;
22070;SDS011;11200;51.488;6.668;2024-03-08T06:48:56;24.30;;;17.40;;
22070;SDS011;11200;51.488;6.668;2024-03-08T06:51:22;26.45;;;18.67;;
22070;SDS011;11200;51.488;6.668;2024-03-08T06:53:49;23.58;;;16.75;;
22070;SDS011;11200;51.488;6.668;2024-03-08T06:56:15;23.83;;;17.02;;
22070;SDS011;11200;51.488;6.668;2024-03-08T06:58:41;23.23;;;16.70;;
22070;SDS011;11200;51.488;6.668;2024-03-08T07:01:07;23.75;;;16.80;;
22070;SDS011;11200;51.488;6.668;2024-03-08T07:03:38;22.10;;;16.20;;
22070;SDS011;11200;51.488;6.668;2024-03-08T07:06:09;23.23;;;17.05;;
22070;SDS011;11200;51.488;6.668;2024-03-08T07:08:38;24.33;;;17.48;;
22070;SDS011;11200;51.488;6.668;2024-03-08T07:11:04;23.13;;;16.85;;
22070;SDS011;11200;51.488;6.668;2024-03-08T07:13:30;25.30;;;17.38;;
22070;SDS011;11200;51.488;6.668;2024-03-08T07:15:56;22.77;;;16.30;;
22070;SDS011;11200;51.488;6.668;2024-03-08T07:18:25;22.92;;;17.17;;
22070;SDS011;11200;51.488;6.668;2024-03-08T07:20:54;23.02;;;17.05;;
22070;SDS011;11200;51.488;6.668;2024-03-08T07:23:21;23.83;;;17.60;;
22070;SDS011;11200;51.488;6.668;2024-03-08T07:26:07;24.38;;;16.90;;
22070;SDS011;11200;51.488;6.668;2024-03-08T07:28:33;23.52;;;17.70;;
22070;SDS011;11200;51.488;6.668;2024-03-08T07:30:59;25.45;;;18.40;;
22070;SDS011;11200;51.488;6.668;2024-03-08T07:33:42;24.17;;;16.90;;
22070;SDS011;11200;51.488;6.668;2024-03-08T07:36:08;25.40;;;17.13;;
22070;SDS011;11200;51.488;6.668;2024-03-08T07:38:34;27.70;;;18.77;;
22070;SDS011;11200;51.488;6.668;2024-03-08T07:41:00;27.35;;;17.70;;
22070;SDS011;11200;51.488;6.668;2024-03-08T07:43:26;24.35;;;17.73;;
22070;SDS011;11200;51.488;6.668;2024-03-08T07:45:52;24.58;;;17.92;;
22070;SDS011;11200;51.488;6.668;2024-03-08T07:48:20;26.40;;;18.15;;
22070;SDS011;11200;51.488;6.668;2024-03-08T07:50:46;23.63;;;17.65;;
22070;SDS011;11200;51.488;6.668;2024-03-08T07:53:12;25.50;;;17.50;;
22070;SDS011;11200;51.488;6.668;2024-03-08T07:55:38;25.10;;;17.77;;
22070;SDS011;11200;51.488;6.668;2024-03-08T07:58:07;26.98;;;18.90;;
22070;SDS011;11200;51.488;6.668;2024-03-08T08:00:35;26.50;;;18.63;;
22070;SDS011;11200;51.488;6.668;2024-03-08T08:03:02;28.55;;;19.38;;
22070;SDS011;11200;51.488;6.668;2024-03-08T08:05:28;26.70;;;19.20;;
22070;SDS011;11200;51.488;6.668;2024-03-08T08:07:54;28.85;;;18.83;;
22070;SDS011;11200;51.488;6.668;2024-03-08T08:10:21;27.65;;;19.38;;
22070;SDS011;11200;51.488;6.668;2024-03-08T08:12:47;29.55;;;19.42;;
22070;SDS011;11200;51.488;6.668;2024-03-08T08:15:13;28.20;;;19.40;;
22070;SDS011;11200;51.488;6.668;2024-03-08T08:17:40;29.23;;;20.25;;
22070;SDS011;11200;51.488;6.668;2024-03-08T08:20:06;30.90;;;19.73;;
22070;SDS011;11200;51.488;6.668;2024-03-08T08:22:32;27.10;;;19.42;;
22070;SDS011;11200;51.488;6.668;2024-03-08T08:24:58;27.42;;;19.58;;
22070;SDS011;11200;51.488;6.668;2024-03-08T08:27:24;29.83;;;20.45;;
22070;SDS011;11200;51.488;6.668;2024-03-08T08:29:51;32.80;;;21.08;;
22070;SDS011;11200;51.488;6.668;2024-03-08T08:32:17;30.92;;;21.23;;
22070;SDS011;11200;51.488;6.668;2024-03-08T08:34:43;32.90;;;21.80;;
22070;SDS011;11200;51.488;6.668;2024-03-08T08:37:09;34.88;;;22.58;;
22070;SDS011;11200;51.488;6.668;2024-03-08T08:39:35;31.90;;;22.42;;
22070;SDS011;11200;51.488;6.668;2024-03-08T08:42:02;32.03;;;22.17;;
22070;SDS011;11200;51.488;6.668;2024-03-08T08:44:28;34.55;;;23.10;;
22070;SDS011;11200;51.488;6.668;2024-03-08T08:46:56;32.17;;;22.92;;
22070;SDS011;11200;51.488;6.668;2024-03-08T08:49:22;34.10;;;23.58;;
22070;SDS011;11200;51.488;6.668;2024-03-08T08:51:49;35.97;;;23.30;;
22070;SDS011;11200;51.488;6.668;2024-03-08T08:54:15;33.75;;;22.80;;
22070;SDS011;11200;51.488;6.668;2024-03-08T08:56:42;34.50;;;23.80;;
22070;SDS011;11200;51.488;6.668;2024-03-08T08:59:12;35.90;;;23.42;;
22070;SDS011;11200;51.488;6.668;2024-03-08T09:01:39;32.53;;;22.88;;
22070;SDS011;11200;51.488;6.668;2024-03-08T09:04:05;34.53;;;23.85;;
22070;SDS011;11200;51.488;6.668;2024-03-08T09:06:32;29.90;;;22.25;;
22070;SDS011;11200;51.488;6.668;2024-03-08T09:08:58;35.20;;;24.45;;
22070;SDS011;11200;51.488;6.668;2024-03-08T09:11:24;36.70;;;24.45;;
22070;SDS011;11200;51.488;6.668;2024-03-08T09:13:50;33.50;;;22.55;;
22070;SDS011;11200;51.488;6.668;2024-03-08T09:16:16;31.23;;;22.25;;
22070;SDS011;11200;51.488;6.668;2024-03-08T09:18:42;31.50;;;22.08;;
22070;SDS011;11200;51.488;6.668;2024-03-08T09:21:08;32.33;;;22.60;;
22070;SDS011;11200;51.488;6.668;2024-03-08T09:23:35;29.08;;;21.63;;
22070;SDS011;11200;51.488;6.668;2024-03-08T09:26:01;31.70;;;21.98;;
22070;SDS011;11200;51.488;6.668;2024-03-08T09:28:28;30.65;;;21.35;;
22070;SDS011;11200;51.488;6.668;2024-03-08T09:30:54;29.38;;;21.55;;
22070;SDS011;11200;51.488;6.668;2024-03-08T09:33:20;29.55;;;21.20;;
22070;SDS011;11200;51.488;6.668;2024-03-08T09:35:47;28.98;;;20.85;;
22070;SDS011;11200;51.488;6.668;2024-03-08T09:38:13;28.50;;;21.25;;
22070;SDS011;11200;51.488;6.668;2024-03-08T09:40:42;28.23;;;21.13;;
22070;SDS011;11200;51.488;6.668;2024-03-08T09:43:09;27.13;;;20.08;;
22070;SDS011;11200;51.488;6.668;2024-03-08T09:45:38;28.27;;;20.33;;
22070;SDS011;11200;51.488;6.668;2024-03-08T09:48:09;25.33;;;19.75;;
22070;SDS011;11200;51.488;6.668;2024-03-08T09:50:41;26.90;;;20.95;;
22070;SDS011;11200;51.488;6.668;2024-03-08T09:53:07;26.38;;;19.13;;
22070;SDS011;11200;51.488;6.668;2024-03-08T09:55:37;26.60;;;19.90;;
22070;SDS011;11200;51.488;6.668;2024-03-08T09:58:07;28.85;;;19.90;;
22070;SDS011;11200;51.488;6.668;2024-03-08T10:00:52;24.92;;;19.50;;
22070;SDS011;11200;51.488;6.668;2024-03-08T10:03:19;25.63;;;19.77;;
22070;SDS011;11200;51.488;6.668;2024-03-08T10:05:45;24.27;;;19.27;;
22070;SDS011;11200;51.488;6.668;2024-03-08T10:08:11;22.48;;;18.55;;
22070;SDS011;11200;51.488;6.668;2024-03-08T10:10:38;25.95;;;19.42;;
22070;SDS011;11200;51.488;6.668;2024-03-08T10:13:07;23.50;;;19.05;;
22070;SDS011;11200;51.488;6.668;2024-03-08T10:15:33;22.90;;;17.85;;
22070;SDS011;11200;51.488;6.668;2024-03-08T10:17:59;22.70;;;17.90;;
22070;SDS011;11200;51.488;6.668;2024-03-08T10:20:27;24.17;;;18.30;;
22070;SDS011;11200;51.488;6.668;2024-03-08T10:22:53;22.75;;;18.55;;
22070;SDS011;11200;51.488;6.668;2024-03-08T10:25:19;23.63;;;18.08;;
22070;SDS011;11200;51.488;6.668;2024-03-08T10:27:45;23.10;;;17.92;;
22070;SDS011;11200;51.488;6.668;2024-03-08T10:30:15;21.50;;;17.27;;
22070;SDS011;11200;51.488;6.668;2024-03-08T10:32:45;21.60;;;16.88;;
22070;SDS011;11200;51.488;6.668;2024-03-08T10:35:11;22.15;;;16.92;;
22070;SDS011;11200;51.488;6.668;2024-03-08T10:37:47;23.60;;;16.95;;
22070;SDS011;11200;51.488;6.668;2024-03-08T10:40:17;20.38;;;16.20;;
22070;SDS011;11200;51.488;6.668;2024-03-08T10:42:54;20.42;;;16.58;;
22070;SDS011;11200;51.488;6.668;2024-03-08T10:45:38;20.42;;;16.95;;
22070;SDS011;11200;51.488;6.668;2024-03-08T10:48:10;20.13;;;16.42;;
22070;SDS011;11200;51.488;6.668;2024-03-08T10:50:40;21.92;;;17.05;;
22070;SDS011;11200;51.488;6.668;2024-03-08T10:53:10;19.77;;;16.55;;
22070;SDS011;11200;51.488;6.668;2024-03-08T10:55:36;19.92;;;16.08;;
22070;SDS011;11200;51.488;6.668;2024-03-08T10:58:02;19.15;;;16.00;;
22070;SDS011;11200;51.488;6.668;2024-03-08T11:00:28;20.40;;;16.17;;
22070;SDS011;11200;51.488;6.668;2024-03-08T11:02:56;20.73;;;15.85;;
22070;SDS011;11200;51.488;6.668;2024-03-08T11:05:38;17.92;;;15.93;;
22070;SDS011;11200;51.488;6.668;2024-03-08T11:10:47;19.13;;;15.57;;
22070;SDS011;11200;51.488;6.668;2024-03-08T11:16:01;17.85;;;15.27;;
22070;SDS011;11200;51.488;6.668;2024-03-08T11:18:32;18.55;;;14.95;;
22070;SDS011;11200;51.488;6.668;2024-03-08T11:20:58;20.20;;;15.63;;
22070;SDS011;11200;51.488;6.668;2024-03-08T11:23:30;17.20;;;14.80;;
22070;SDS011;11200;51.488;6.668;2024-03-08T11:25:56;18.25;;;14.93;;
22070;SDS011;11200;51.488;6.668;2024-03-08T11:28:23;17.65;;;14.68;;
22070;SDS011;11200;51.488;6.668;2024-03-08T11:33:28;17.20;;;14.55;;
22070;SDS011;11200;51.488;6.668;2024-03-08T11:38:42;17.20;;;14.55;;
22070;SDS011;11200;51.488;6.668;2024-03-08T11:41:16;16.35;;;13.65;;
22070;SDS011;11200;51.488;6.668;2024-03-08T11:43:43;18.27;;;15.38;;
22070;SDS011;11200;51.488;6.668;2024-03-08T11:46:09;15.02;;;13.43;;
22070;SDS011;11200;51.488;6.668;2024-03-08T11:48:37;15.90;;;13.85;;
22070;SDS011;11200;51.488;6.668;2024-03-08T11:51:03;17.17;;;14.65;;
22070;SDS011;11200;51.488;6.668;2024-03-08T11:53:30;16.35;;;13.75;;
22070;SDS011;11200;51.488;6.668;2024-03-08T11:56:17;16.70;;;14.95;;
22070;SDS011;11200;51.488;6.668;2024-03-08T11:58:52;18.58;;;14.75;;
22070;SDS011;11200;51.488;6.668;2024-03-08T12:01:19;17.00;;;14.30;;
22070;SDS011;11200;51.488;6.668;2024-03-08T12:03:45;16.55;;;14.00;;
22070;SDS011;11200;51.488;6.668;2024-03-08T12:06:17;15.70;;;13.40;;
22070;SDS011;11200;51.488;6.668;2024-03-08T12:08:45;15.63;;;13.30;;
22070;SDS011;11200;51.488;6.668;2024-03-08T12:11:14;17.60;;;14.18;;
22070;SDS011;11200;51.488;6.668;2024-03-08T12:13:41;17.00;;;14.00;;
22070;SDS011;11200;51.488;6.668;2024-03-08T12:16:07;15.77;;;13.20;;
22070;SDS011;11200;51.488;6.668;2024-03-08T12:18:35;16.80;;;13.48;;
22070;SDS011;11200;51.488;6.668;2024-03-08T12:21:09;15.95;;;13.93;;
22070;SDS011;11200;51.488;6.668;2024-03-08T12:23:47;14.95;;;13.38;;
22070;SDS011;11200;51.488;6.668;2024-03-08T12:26:18;15.50;;;13.73;;
22070;SDS011;11200;51.488;6.668;2024-03-08T12:28:49;16.88;;;13.75;;
22070;SDS011;11200;51.488;6.668;2024-03-08T12:31:18;15.27;;;13.02;;
22070;SDS011;11200;51.488;6.668;2024-03-08T12:33:51;14.32;;;12.50;;
22070;SDS011;11200;51.488;6.668;2024-03-08T12:36:17;16.02;;;13.75;;
22070;SDS011;11200;51.488;6.668;2024-03-08T12:38:45;17.15;;;13.23;;
22070;SDS011;11200;51.488;6.668;2024-03-08T12:41:13;14.45;;;12.40;;
22070;SDS011;11200;51.488;6.668;2024-03-08T12:43:39;14.73;;;12.88;;
22070;SDS011;11200;51.488;6.668;2024-03-08T12:46:05;15.63;;;13.48;;
22070;SDS011;11200;51.488;6.668;2024-03-08T12:48:34;17.05;;;13.13;;
22070;SDS011;11200;51.488;6.668;2024-03-08T12:51:01;15.13;;;12.77;;
22070;SDS011;11200;51.488;6.668;2024-03-08T12:53:27;14.25;;;12.43;;
22070;SDS011;11200;51.488;6.668;2024-03-08T12:55:56;14.73;;;11.93;;
22070;SDS011;11200;51.488;6.668;2024-03-08T12:58:22;14.82;;;12.20;;
22070;SDS011;11200;51.488;6.668;2024-03-08T13:00:48;13.73;;;12.20;;
22070;SDS011;11200;51.488;6.668;2024-03-08T13:03:14;13.85;;;11.85;;
22070;SDS011;11200;51.488;6.668;2024-03-08T13:05:40;12.90;;;11.55;;
22070;SDS011;11200;51.488;6.668;2024-03-08T13:08:07;15.18;;;12.65;;
22070;SDS011;11200;51.488;6.668;2024-03-08T13:10:40;13.77;;;11.85;;
22070;SDS011;11200;51.488;6.668;2024-03-08T13:13:08;15.48;;;12.98;;
22070;SDS011;11200;51.488;6.668;2024-03-08T13:15:35;13.90;;;11.77;;
22070;SDS011;11200;51.488;6.668;2024-03-08T13:18:02;14.40;;;11.77;;
22070;SDS011;11200;51.488;6.668;2024-03-08T13:20:31;13.43;;;11.18;;
22070;SDS011;11200;51.488;6.668;2024-03-08T13:22:59;12.38;;;11.07;;
22070;SDS011;11200;51.488;6.668;2024-03-08T13:25:27;15.07;;;10.90;;
22070;SDS011;11200;51.488;6.668;2024-03-08T13:27:55;15.95;;;12.02;;
22070;SDS011;11200;51.488;6.668;2024-03-08T13:30:24;12.35;;;11.05;;
22070;SDS011;11200;51.488;6.668;2024-03-08T13:32:52;14.68;;;11.40;;
22070;SDS011;11200;51.488;6.668;2024-03-08T13:35:20;12.95;;;11.02;;
22070;SDS011;11200;51.488;6.668;2024-03-08T13:37:51;13.18;;;11.02;;
22070;SDS011;11200;51.488;6.668;2024-03-08T13:40:18;11.95;;;10.65;;
22070;SDS011;11200;51.488;6.668;2024-03-08T13:42:48;15.13;;;11.10;;
22070;SDS011;11200;51.488;6.668;2024-03-08T13:45:15;12.57;;;10.75;;
22070;SDS011;11200;51.488;6.668;2024-03-08T13:47:52;13.98;;;10.82;;
22070;SDS011;11200;51.488;6.668;2024-03-08T13:50:19;12.65;;;10.30;;
22070;SDS011;11200;51.488;6.668;2024-03-08T13:52:49;11.90;;;9.73;;
22070;SDS011;11200;51.488;6.668;2024-03-08T13:55:16;10.68;;;9.43;;
22070;SDS011;11200;51.488;6.668;2024-03-08T13:57:42;11.07;;;9.38;;
22070;SDS011;11200;51.488;6.668;2024-03-08T14:00:10;10.85;;;9.55;;
22070;SDS011;11200;51.488;6.668;2024-03-08T14:02:36;11.27;;;8.50;;
22070;SDS011;11200;51.488;6.668;2024-03-08T14:05:07;11.65;;;8.98;;
22070;SDS011;11200;51.488;6.668;2024-03-08T14:07:37;10.05;;;8.25;;
22070;SDS011;11200;51.488;6.668;2024-03-08T14:10:04;10.73;;;8.45;;
22070;SDS011;11200;51.488;6.668;2024-03-08T14:12:33;10.02;;;8.48;;
22070;SDS011;11200;51.488;6.668;2024-03-08T14:15:00;10.63;;;8.52;;
22070;SDS011;11200;51.488;6.668;2024-03-08T14:17:26;11.45;;;8.10;;
22070;SDS011;11200;51.488;6.668;2024-03-08T14:19:52;10.65;;;8.85;;
22070;SDS011;11200;51.488;6.668;2024-03-08T14:22:19;11.52;;;8.32;;
22070;SDS011;11200;51.488;6.668;2024-03-08T14:24:45;8.98;;;7.45;;
22070;SDS011;11200;51.488;6.668;2024-03-08T14:27:11;10.60;;;8.40;;
22070;SDS011;11200;51.488;6.668;2024-03-08T14:29:39;9.80;;;8.18;;
22070;SDS011;11200;51.488;6.668;2024-03-08T14:32:05;8.93;;;7.63;;
22070;SDS011;11200;51.488;6.668;2024-03-08T14:34:32;9.20;;;7.68;;